Time;durP1;ratioP1;P1;durP2;ratioP2;P2;SDS_P1;SDS_P2;PMS_P1;PMS_P2;Temp;Humidity;BMP_temperature;BMP_pressure;BME280_temperature;BME280_humidity;BME280_pressure;Samples;Min_cycle;Max_cycle;Signal;HPM_P1;HPM_P2
2022/12/31 04:04:50;;;;;;;9.23;2.08;;;13.70;74.90;;;;;;5586147;23;20123;-72
2022/12/31 04:07:16;;;;;;;10.02;1.90;;;13.70;74.90;;;;;;4897509;29;20124;-73
2022/12/31 04:09:41;;;;;;;7.65;1.55;;;13.70;75.00;;;;;;4901520;29;20060;-73
2022/12/31 04:12:07;;;;;;;9.20;1.60;;;13.70;75.00;;;;;;4884398;29;20343;-73
2022/12/31 04:14:33;;;;;;;7.07;2.17;;;13.80;75.10;;;;;;4901373;29;20076;-74
2022/12/31 04:16:59;;;;;;;11.65;2.05;;;13.80;75.00;;;;;;4900749;29;20555;-73
2022/12/31 04:19:24;;;;;;;8.88;2.38;;;13.80;74.90;;;;;;4900529;29;20040;-73
2022/12/31 04:21:50;;;;;;;7.85;1.98;;;13.80;74.80;;;;;;4901119;29;20132;-73
2022/12/31 04:24:16;;;;;;;14.18;3.05;;;13.90;74.80;;;;;;4901394;29;20368;-74
2022/12/31 04:26:42;;;;;;;9.02;1.75;;;13.90;74.80;;;;;;4910391;29;20404;-74
2022/12/31 04:29:12;;;;;;;12.02;2.20;;;14.00;74.80;;;;;;4904347;29;20052;-71
2022/12/31 04:31:38;;;;;;;8.52;1.75;;;14.00;74.80;;;;;;4868604;29;20052;-76
2022/12/31 04:34:03;;;;;;;11.18;1.77;;;14.00;74.80;;;;;;4901069;29;20048;-75
2022/12/31 04:36:29;;;;;;;11.15;1.90;;;14.00;74.70;;;;;;4901080;29;20041;-72
2022/12/31 04:38:55;;;;;;;7.28;1.73;;;14.00;74.70;;;;;;4884485;29;20053;-75
2022/12/31 04:41:21;;;;;;;8.95;2.20;;;14.00;74.60;;;;;;4883839;29;20060;-74
2022/12/31 04:43:58;;;;;;;6.72;2.47;;;14.00;74.60;;;;;;4900495;29;20114;-72
2022/12/31 04:46:29;;;;;;;10.88;1.75;;;14.00;74.50;;;;;;4900471;29;20129;-77
2022/12/31 04:48:55;;;;;;;6.53;1.58;;;14.00;74.50;;;;;;4900863;29;20049;-75
2022/12/31 04:51:21;;;;;;;9.50;1.67;;;14.00;74.50;;;;;;4901028;29;20171;-74
2022/12/31 04:53:48;;;;;;;6.65;2.00;;;14.00;74.50;;;;;;4901702;29;20189;-76
2022/12/31 04:56:15;;;;;;;8.43;1.73;;;14.00;74.40;;;;;;4878583;29;20048;-74
2022/12/31 04:58:41;;;;;;;11.07;1.92;;;14.10;74.50;;;;;;4899267;29;20044;-73
2022/12/31 05:01:12;;;;;;;8.40;1.50;;;14.10;74.50;;;;;;4863590;29;20052;-74
2022/12/31 05:03:38;;;;;;;7.03;1.92;;;14.10;74.40;;;;;;4897111;29;20052;-74
2022/12/31 05:06:12;;;;;;;6.35;1.30;;;14.10;74.40;;;;;;4899685;29;20372;-76
2022/12/31 05:08:37;;;;;;;9.23;2.13;;;14.10;74.30;;;;;;4899682;29;20052;-75
2022/12/31 05:11:03;;;;;;;6.68;1.35;;;14.00;74.30;;;;;;4899486;29;20456;-77
2022/12/31 05:13:30;;;;;;;7.70;1.95;;;14.10;74.40;;;;;;4900391;29;20431;-76
2022/12/31 05:15:55;;;;;;;7.50;1.63;;;14.10;74.50;;;;;;4900270;29;20119;-77
2022/12/31 05:18:22;;;;;;;11.68;2.25;;;14.10;74.80;;;;;;4900106;29;20127;-78
2022/12/31 05:20:48;;;;;;;8.90;1.90;;;14.00;75.50;;;;;;4899906;29;20095;-78
2022/12/31 05:23:15;;;;;;;11.40;2.25;;;14.10;75.50;;;;;;4899923;29;20052;-77
2022/12/31 05:25:46;;;;;;;7.97;1.73;;;14.20;75.30;;;;;;4883831;29;20052;-74
2022/12/31 05:28:12;;;;;;;11.65;1.95;;;14.50;75.00;;;;;;4899870;29;20057;-77
2022/12/31 05:30:38;;;;;;;11.50;2.47;;;14.50;74.90;;;;;;4899644;29;20048;-76
2022/12/31 05:33:04;;;;;;;14.35;2.17;;;14.70;74.60;;;;;;4883504;29;20044;-77
2022/12/31 05:35:29;;;;;;;9.43;2.08;;;14.80;74.60;;;;;;4882831;29;20044;-77
2022/12/31 05:37:55;;;;;;;8.57;1.83;;;14.90;74.60;;;;;;4899813;29;20063;-77
2022/12/31 05:40:21;;;;;;;10.35;1.90;;;14.90;74.60;;;;;;4884134;29;20341;-74
2022/12/31 05:42:51;;;;;;;12.60;2.00;;;15.00;74.70;;;;;;4899812;29;20060;-75
2022/12/31 05:45:17;;;;;;;13.45;2.20;;;15.10;74.90;;;;;;4900164;29;20437;-76
2022/12/31 05:47:43;;;;;;;8.68;1.85;;;15.10;74.90;;;;;;4899949;29;20080;-71
2022/12/31 05:50:11;;;;;;;13.13;1.67;;;15.20;75.00;;;;;;4883053;29;20123;-76
2022/12/31 05:52:37;;;;;;;19.52;2.30;;;15.20;74.90;;;;;;4899545;29;20095;-75
2022/12/31 05:55:03;;;;;;;13.77;3.00;;;15.20;75.00;;;;;;4899361;29;20101;-76
2022/12/31 05:57:29;;;;;;;16.50;2.22;;;15.20;75.40;;;;;;4900023;29;20499;-74
2022/12/31 05:59:55;;;;;;;17.13;2.25;;;15.30;75.80;;;;;;4899677;29;20124;-77
2022/12/31 06:02:33;;;;;;;22.27;2.60;;;15.30;75.70;;;;;;4899750;29;20192;-74
2022/12/31 06:05:02;;;;;;;14.77;2.28;;;15.30;75.80;;;;;;4899539;29;20052;-74
2022/12/31 06:07:27;;;;;;;12.82;2.28;;;15.40;75.70;;;;;;4882319;29;20213;-73
2022/12/31 06:09:53;;;;;;;18.08;2.42;;;15.50;75.70;;;;;;4867485;29;20139;-76
2022/12/31 06:12:19;;;;;;;14.30;2.55;;;15.60;75.80;;;;;;4899144;29;20053;-76
2022/12/31 06:14:45;;;;;;;23.50;2.63;;;15.70;75.80;;;;;;4898581;29;20041;-74
2022/12/31 06:17:10;;;;;;;16.42;1.73;;;15.90;75.70;;;;;;4884030;29;20064;-77
2022/12/31 06:19:36;;;;;;;15.13;2.20;;;16.00;75.60;;;;;;4887282;29;20041;-75
2022/12/31 06:22:02;;;;;;;15.73;2.47;;;16.00;75.40;;;;;;4903963;29;20348;-73
2022/12/31 06:24:27;;;;;;;13.88;1.70;;;16.10;75.40;;;;;;4903608;29;20052;-73
2022/12/31 06:26:53;;;;;;;13.35;2.28;;;16.10;75.40;;;;;;4903235;29;20465;-75
2022/12/31 06:29:19;;;;;;;15.73;1.90;;;16.20;75.40;;;;;;4887076;29;20067;-74
2022/12/31 06:31:45;;;;;;;8.52;1.63;;;16.30;75.30;;;;;;4886568;29;20384;-75
2022/12/31 06:34:11;;;;;;;12.85;2.80;;;16.40;75.20;;;;;;4903396;29;20041;-75
2022/12/31 06:36:37;;;;;;;10.88;1.75;;;16.40;75.20;;;;;;4902648;29;20060;-75
2022/12/31 06:39:03;;;;;;;9.75;1.80;;;16.40;75.80;;;;;;4901728;29;20059;-69
2022/12/31 06:41:29;;;;;;;10.63;1.98;;;16.40;75.30;;;;;;4902915;29;20059;-72
2022/12/31 06:43:55;;;;;;;14.32;1.50;;;16.40;75.20;;;;;;4903091;29;20127;-74
2022/12/31 06:46:21;;;;;;;9.98;1.60;;;16.30;75.10;;;;;;4886396;29;20072;-74
2022/12/31 06:48:46;;;;;;;13.38;2.20;;;16.30;75.10;;;;;;4886029;29;20067;-75
2022/12/31 06:51:18;;;;;;;7.43;1.27;;;16.20;74.60;;;;;;4902700;29;20055;-77
2022/12/31 06:53:45;;;;;;;18.55;2.25;;;16.20;75.30;;;;;;4902853;29;20136;-77
2022/12/31 06:56:24;;;;;;;13.52;1.90;;;16.20;75.40;;;;;;4901680;29;20127;-74
2022/12/31 06:58:51;;;;;;;17.83;2.92;;;16.20;75.30;;;;;;4901186;29;20040;-76
2022/12/31 07:02:07;;;;;;;9.45;1.60;;;16.20;75.20;;;;;;4885368;29;20048;-77
2022/12/31 07:04:54;;;;;;;13.57;2.45;;;16.00;75.40;;;;;;4844580;29;20133;-77
2022/12/31 07:07:31;;;;;;;10.98;2.20;;;16.00;75.60;;;;;;4828683;29;20066;-73
2022/12/31 07:10:16;;;;;;;10.85;1.48;;;15.80;74.50;;;;;;4884130;29;20485;-73
2022/12/31 07:13:01;;;;;;;15.13;2.20;;;15.80;76.00;;;;;;4886142;29;20131;-74
2022/12/31 07:15:36;;;;;;;19.98;2.75;;;15.90;76.20;;;;;;4902517;29;20384;-73
2022/12/31 07:18:21;;;;;;;21.42;2.70;;;15.90;76.40;;;;;;4902062;29;20048;-70
2022/12/31 07:20:47;;;;;;;25.10;2.80;;;16.00;76.40;;;;;;4901285;29;20056;-70
2022/12/31 07:23:13;;;;;;;20.23;2.55;;;16.00;76.60;;;;;;4885512;29;20068;-70
2022/12/31 07:25:50;;;;;;;9.25;1.52;;;16.00;76.30;;;;;;4902408;29;20044;-71
2022/12/31 07:28:36;;;;;;;11.25;1.55;;;16.10;75.80;;;;;;4902075;29;20052;-71
2022/12/31 07:31:05;;;;;;;10.68;1.92;;;16.10;75.10;;;;;;4901715;29;20080;-71
2022/12/31 07:33:50;;;;;;;6.20;1.25;;;16.10;75.20;;;;;;4885791;29;20143;-72
2022/12/31 07:36:39;;;;;;;6.82;1.70;;;16.10;74.60;;;;;;4884585;29;20056;-71
2022/12/31 07:39:13;;;;;;;5.10;1.45;;;16.10;74.50;;;;;;4863266;29;20103;-72
2022/12/31 07:42:00;;;;;;;4.13;1.45;;;16.10;74.20;;;;;;4901087;29;20333;-73
2022/12/31 07:44:40;;;;;;;7.47;1.60;;;16.10;74.00;;;;;;4901594;29;20091;-77
2022/12/31 07:47:21;;;;;;;7.25;1.08;;;16.00;73.90;;;;;;4901431;29;20053;-75
2022/12/31 07:49:47;;;;;;;10.57;1.45;;;16.00;73.90;;;;;;4901592;29;20052;-74
2022/12/31 07:52:14;;;;;;;6.35;1.20;;;16.00;74.50;;;;;;4901045;29;20067;-75
2022/12/31 07:54:40;;;;;;;6.90;1.58;;;15.90;74.40;;;;;;4901686;29;20048;-74
2022/12/31 07:57:06;;;;;;;5.10;1.10;;;15.90;74.40;;;;;;4901080;29;20491;-76
2022/12/31 07:59:32;;;;;;;7.20;1.13;;;15.90;74.60;;;;;;4901363;29;20056;-74
2022/12/31 08:02:28;;;;;;;5.13;1.55;;;15.90;74.80;;;;;;4900707;29;20108;-76
2022/12/31 08:05:12;;;;;;;6.18;1.38;;;15.80;74.90;;;;;;4900773;29;20531;-72
2022/12/31 08:07:38;;;;;;;5.95;0.70;;;15.80;75.00;;;;;;4900837;29;20054;-77
2022/12/31 08:10:18;;;;;;;3.75;0.95;;;15.70;75.00;;;;;;4882589;29;20053;-74
2022/12/31 08:12:47;;;;;;;5.05;0.57;;;15.70;75.00;;;;;;4882758;29;20088;-74
2022/12/31 08:15:17;;;;;;;5.68;0.80;;;15.70;75.10;;;;;;4889569;29;20364;-75
2022/12/31 08:17:44;;;;;;;4.53;0.60;;;15.70;75.10;;;;;;4860997;29;20079;-74
2022/12/31 08:20:16;;;;;;;3.97;0.70;;;15.60;75.00;;;;;;4903155;29;20135;-74
2022/12/31 08:22:54;;;;;;;2.70;0.70;;;15.60;75.00;;;;;;4901362;29;20041;-74
2022/12/31 08:25:26;;;;;;;3.28;0.70;;;15.60;75.20;;;;;;4901114;29;20402;-75
2022/12/31 08:28:24;;;;;;;9.93;0.82;;;15.60;75.30;;;;;;4901195;29;20056;-74
2022/12/31 08:31:02;;;;;;;3.08;0.40;;;15.60;75.20;;;;;;4900302;29;20093;-75
2022/12/31 08:33:42;;;;;;;3.28;0.65;;;15.50;75.30;;;;;;4900708;29;20472;-74
2022/12/31 08:36:13;;;;;;;3.10;0.40;;;15.60;75.30;;;;;;4900738;29;20040;-73
2022/12/31 08:38:51;;;;;;;5.38;1.02;;;15.50;75.10;;;;;;4901240;29;20049;-76
2022/12/31 08:41:38;;;;;;;1.88;0.60;;;15.50;75.00;;;;;;4900427;29;20483;-74
2022/12/31 08:44:28;;;;;;;1.15;0.40;;;15.50;74.70;;;;;;4900879;29;20057;-73
2022/12/31 08:47:02;;;;;;;1.33;0.70;;;15.50;74.70;;;;;;4901123;29;20049;-74
2022/12/31 08:49:31;;;;;;;2.28;0.40;;;15.50;74.60;;;;;;4899908;29;20056;-75
2022/12/31 08:51:58;;;;;;;1.33;0.65;;;15.50;74.60;;;;;;4900642;29;20443;-76
2022/12/31 08:54:24;;;;;;;0.90;0.50;;;15.50;74.60;;;;;;4900634;29;20044;-74
2022/12/31 08:56:50;;;;;;;3.40;0.68;;;15.50;74.60;;;;;;4900443;29;20215;-75
2022/12/31 08:59:34;;;;;;;7.53;1.30;;;15.50;74.50;;;;;;4900330;29;20131;-76
2022/12/31 09:02:06;;;;;;;3.42;0.90;;;15.50;74.50;;;;;;4896880;29;20064;-74
2022/12/31 09:04:52;;;;;;;4.50;1.25;;;15.40;74.40;;;;;;4898686;29;20166;-75
2022/12/31 09:07:25;;;;;;;8.68;2.10;;;15.40;74.60;;;;;;4894248;29;20071;-75
2022/12/31 09:10:28;;;;;;;2.07;1.00;;;15.40;74.60;;;;;;4884034;29;20059;-75
2022/12/31 09:13:43;;;;;;;4.55;1.02;;;15.40;74.80;;;;;;4899695;29;20417;-76
2022/12/31 09:16:21;;;;;;;7.78;1.45;;;15.30;74.70;;;;;;4896568;29;20464;-76
2022/12/31 09:18:46;;;;;;;7.78;1.10;;;15.30;75.10;;;;;;4900395;29;20119;-75
2022/12/31 09:24:53;;;;;;;4.10;1.40;;;15.20;75.40;;;;;;4899624;29;20036;-79
2022/12/31 09:27:25;;;;;;;9.25;1.48;;;15.30;75.40;;;;;;4899984;29;20040;-79
2022/12/31 09:30:07;;;;;;;12.02;1.33;;;15.30;75.60;;;;;;4899947;29;20044;-74
2022/12/31 09:36:55;;;;;;;9.77;2.15;;;15.30;75.50;;;;;;4861356;29;20060;-81
2022/12/31 09:39:38;;;;;;;8.68;1.77;;;15.30;75.70;;;;;;4882643;29;20036;-82
2022/12/31 09:42:33;;;;;;;7.15;1.50;;;15.30;75.80;;;;;;4869147;29;20117;-81
2022/12/31 09:45:49;;;;;;;7.55;1.83;;;15.20;75.80;;;;;;4882714;29;20040;-81
2022/12/31 09:48:41;;;;;;;8.48;1.85;;;15.20;75.80;;;;;;4881481;29;20115;-80
2022/12/31 09:51:45;;;;;;;;;;;;;;;;;;;;;
2022/12/31 09:54:44;;;;;;;5.35;1.23;;;15.20;75.80;;;;;;4903050;29;20084;-81
2022/12/31 09:57:50;;;;;;;6.85;1.33;;;15.20;75.70;;;;;;4871909;29;20044;-80
2022/12/31 10:00:45;;;;;;;4.63;0.70;;;15.20;75.70;;;;;;4871691;29;20056;-81
2022/12/31 10:03:20;;;;;;;4.82;0.73;;;15.10;75.60;;;;;;4839236;29;20044;-80
2022/12/31 10:06:24;;;;;;;6.45;1.10;;;15.20;75.70;;;;;;4872000;29;20067;-82
2022/12/31 10:09:47;;;;;;;5.88;1.33;;;15.20;75.70;;;;;;4870952;29;20059;-82
2022/12/31 10:12:42;;;;;;;6.60;0.80;;;15.20;75.60;;;;;;4832069;29;20082;-81
2022/12/31 10:15:43;;;;;;;5.80;0.75;;;15.10;75.60;;;;;;4814860;29;20101;-80
2022/12/31 10:18:47;;;;;;;5.07;0.93;;;15.10;75.50;;;;;;4881685;29;20045;-81
2022/12/31 10:22:18;;;;;;;2.28;0.75;;;15.10;75.50;;;;;;4884669;29;20115;-81
2022/12/31 10:25:28;;;;;;;4.90;0.65;;;15.10;75.40;;;;;;4887377;29;20040;-80
2022/12/31 10:28:34;;;;;;;3.97;0.90;;;15.10;75.50;;;;;;4887592;29;20045;-80
2022/12/31 10:31:52;;;;;;;2.42;0.50;;;15.10;75.60;;;;;;4870529;29;20052;-80
2022/12/31 10:35:04;;;;;;;4.10;0.73;;;15.10;75.50;;;;;;4831124;29;20038;-82
2022/12/31 10:37:48;;;;;;;3.67;1.27;;;15.10;75.50;;;;;;4871667;29;20039;-81
2022/12/31 10:40:52;;;;;;;4.25;0.77;;;15.10;75.60;;;;;;4886507;29;20041;-80
2022/12/31 10:43:48;;;;;;;3.47;0.98;;;15.10;75.50;;;;;;4881909;29;20056;-81
2022/12/31 10:46:37;;;;;;;4.57;0.90;;;15.10;76.10;;;;;;4887357;29;20179;-82
2022/12/31 10:49:34;;;;;;;4.63;1.02;;;15.10;75.60;;;;;;4871132;29;20053;-80
2022/12/31 10:52:46;;;;;;;3.95;0.80;;;15.10;75.50;;;;;;4871815;29;20524;-81
2022/12/31 10:55:57;;;;;;;2.67;0.80;;;15.00;75.40;;;;;;4869919;29;20452;-82
2022/12/31 10:58:53;;;;;;;4.32;0.98;;;15.10;75.40;;;;;;4870581;29;20380;-80
2022/12/31 11:01:46;;;;;;;3.08;0.77;;;15.10;75.40;;;;;;4886226;29;20054;-80
2022/12/31 11:04:36;;;;;;;5.45;1.00;;;15.10;75.50;;;;;;4884138;29;20116;-80
2022/12/31 11:07:21;;;;;;;4.95;0.95;;;15.10;75.50;;;;;;4885534;29;20060;-80
2022/12/31 11:10:26;;;;;;;4.22;0.95;;;15.10;75.50;;;;;;4887357;29;20063;-82
2022/12/31 11:13:59;;;;;;;6.32;1.55;;;15.10;75.40;;;;;;4885555;29;20044;-81
2022/12/31 11:16:56;;;;;;;3.22;0.77;;;15.10;75.30;;;;;;4845119;29;20053;-81
2022/12/31 11:19:49;;;;;;;3.20;1.13;;;15.00;75.30;;;;;;4885715;29;20459;-80
2022/12/31 11:22:58;;;;;;;4.90;1.63;;;15.00;75.20;;;;;;4870082;29;20083;-82
2022/12/31 11:25:46;;;;;;;4.35;1.40;;;15.00;75.30;;;;;;4886481;29;20055;-81
2022/12/31 11:28:24;;;;;;;6.28;1.60;;;15.10;75.40;;;;;;4901792;29;20072;-81
2022/12/31 11:30:59;;;;;;;5.65;1.35;;;15.00;75.30;;;;;;4902537;29;20373;-80
2022/12/31 11:33:31;;;;;;;6.88;1.85;;;15.00;75.40;;;;;;4885455;29;20052;-80
2022/12/31 11:36:15;;;;;;;6.32;1.80;;;15.00;75.30;;;;;;4870183;29;20131;-80
2022/12/31 11:38:56;;;;;;;8.23;1.40;;;15.10;75.30;;;;;;4869477;29;20083;-82
2022/12/31 11:41:32;;;;;;;5.63;1.20;;;15.00;75.30;;;;;;4885752;29;20040;-80
2022/12/31 11:44:13;;;;;;;2.83;0.98;;;15.00;75.20;;;;;;4869762;29;20071;-80
2022/12/31 11:47:06;;;;;;;4.45;1.45;;;15.00;75.20;;;;;;4884902;29;20041;-82
2022/12/31 11:49:44;;;;;;;4.88;2.00;;;15.00;75.20;;;;;;4885086;29;20036;-80
2022/12/31 11:52:12;;;;;;;5.82;1.27;;;15.00;75.20;;;;;;4884566;29;20049;-80
2022/12/31 11:55:09;;;;;;;7.30;1.50;;;15.00;75.20;;;;;;4869562;29;20401;-82
2022/12/31 11:57:40;;;;;;;5.68;1.42;;;15.00;75.70;;;;;;4869986;29;20464;-82
2022/12/31 12:00:17;;;;;;;7.78;1.75;;;15.00;75.20;;;;;;4884893;29;20490;-81
2022/12/31 12:03:05;;;;;;;5.90;2.03;;;15.00;75.10;;;;;;4884971;29;20044;-80
2022/12/31 12:05:32;;;;;;;6.45;2.05;;;15.00;75.10;;;;;;4884841;29;20416;-82
2022/12/31 12:08:01;;;;;;;5.13;1.52;;;15.00;75.10;;;;;;4885772;29;20041;-81
2022/12/31 12:10:30;;;;;;;6.32;1.30;;;15.00;75.10;;;;;;4869414;29;20132;-81
2022/12/31 12:12:57;;;;;;;7.57;1.75;;;15.00;75.00;;;;;;4869439;29;20116;-81
2022/12/31 12:15:27;;;;;;;5.47;1.58;;;15.00;75.00;;;;;;4868620;29;20131;-82
2022/12/31 12:17:56;;;;;;;7.60;1.55;;;15.00;75.00;;;;;;4868551;29;20084;-80
2022/12/31 12:20:35;;;;;;;6.93;1.90;;;15.00;75.10;;;;;;4869988;29;20045;-81
2022/12/31 12:23:12;;;;;;;5.75;1.60;;;15.00;75.00;;;;;;4869150;29;20037;-81
2022/12/31 12:25:41;;;;;;;7.30;1.55;;;15.00;75.00;;;;;;4850841;29;20453;-81
2022/12/31 12:28:40;;;;;;;5.35;1.90;;;15.00;75.10;;;;;;4850738;29;20044;-80
2022/12/31 12:31:06;;;;;;;7.95;1.58;;;15.00;75.10;;;;;;4865764;29;20049;-82
2022/12/31 12:33:43;;;;;;;7.35;1.52;;;15.00;75.00;;;;;;4881205;29;20109;-81
2022/12/31 12:36:12;;;;;;;7.28;1.60;;;15.00;74.90;;;;;;4849987;29;20056;-81
2022/12/31 12:38:41;;;;;;;7.05;1.70;;;15.00;75.00;;;;;;4850909;29;20052;-82
2022/12/31 12:41:17;;;;;;;6.35;1.73;;;15.00;75.00;;;;;;4850775;29;20330;-80
2022/12/31 12:43:46;;;;;;;5.07;1.73;;;15.00;75.00;;;;;;4865608;29;20033;-82
2022/12/31 12:46:30;;;;;;;7.72;2.15;;;15.00;75.00;;;;;;4867719;29;20360;-79
2022/12/31 12:48:56;;;;;;;;;;;15.00;75.00;;;;;;4868335;29;20052;-81
2022/12/31 12:51:59;;;;;;;6.47;1.65;;;15.00;74.90;;;;;;4884210;29;19923;-80
2022/12/31 12:54:35;;;;;;;6.00;1.48;;;15.00;75.10;;;;;;4868454;29;20076;-81
2022/12/31 12:57:18;;;;;;;8.32;1.75;;;15.00;75.30;;;;;;4884012;29;20123;-80
2022/12/31 12:59:52;;;;;;;9.18;1.80;;;15.00;75.30;;;;;;4868116;29;20076;-81
2022/12/31 13:02:27;;;;;;;5.75;1.45;;;15.00;75.30;;;;;;4883620;29;20044;-81
2022/12/31 13:05:09;;;;;;;5.28;1.90;;;14.90;75.30;;;;;;4884239;29;20052;-78
2022/12/31 13:08:00;;;;;;;5.75;2.30;;;14.90;75.30;;;;;;4883863;29;20423;-77
2022/12/31 13:10:38;;;;;;;4.15;1.70;;;14.90;75.40;;;;;;4883872;29;20049;-78
2022/12/31 13:13:23;;;;;;;6.90;1.77;;;14.90;75.30;;;;;;4868303;29;20428;-80
2022/12/31 13:16:08;;;;;;;5.45;1.73;;;14.90;75.40;;;;;;4868084;29;20056;-81
2022/12/31 13:18:55;;;;;;;5.00;1.83;;;14.90;75.40;;;;;;4883371;29;20045;-80
2022/12/31 13:21:27;;;;;;;5.63;1.55;;;14.90;75.60;;;;;;4868114;29;20204;-81
2022/12/31 13:24:04;;;;;;;7.28;2.05;;;14.90;75.60;;;;;;4867647;29;20092;-81
2022/12/31 13:26:32;;;;;;;6.55;1.67;;;14.90;75.70;;;;;;4883553;29;20037;-79
2022/12/31 13:29:04;;;;;;;6.82;1.98;;;14.80;75.70;;;;;;4868164;29;20052;-80
2022/12/31 13:31:39;;;;;;;7.28;1.75;;;14.80;75.80;;;;;;4883085;29;20486;-79
2022/12/31 13:34:40;;;;;;;12.32;2.50;;;14.90;75.90;;;;;;4882864;29;20045;-81
2022/12/31 13:40:50;;;;;;;9.98;2.20;;;14.90;76.30;;;;;;4824013;29;20387;-82
2022/12/31 13:43:33;;;;;;;12.50;2.63;;;14.90;76.60;;;;;;4809200;29;20065;-75
2022/12/31 13:46:11;;;;;;;11.52;2.45;;;15.00;76.80;;;;;;4825782;29;20046;-80
2022/12/31 13:49:00;;;;;;;14.98;2.30;;;15.20;77.00;;;;;;4841888;29;20057;-81
2022/12/31 13:51:41;;;;;;;14.57;2.78;;;15.40;76.90;;;;;;4881263;29;20120;-81
2022/12/31 13:54:40;;;;;;;16.70;2.40;;;15.50;76.90;;;;;;4864582;29;20132;-82
2022/12/31 13:57:40;;;;;;;11.88;2.22;;;15.60;76.80;;;;;;4867279;29;20044;-80
2022/12/31 14:00:53;;;;;;;16.42;2.70;;;15.70;76.60;;;;;;4854635;29;20139;-78
2022/12/31 14:04:10;;;;;;;16.02;2.45;;;15.70;76.50;;;;;;4897201;29;20044;-81
2022/12/31 14:10:44;;;;;;;15.23;1.90;;;15.80;76.80;;;;;;4839744;29;20634;-78
2022/12/31 14:13:35;;;;;;;7.55;1.60;;;15.80;77.00;;;;;;4880300;29;20044;-79
2022/12/31 14:16:01;;;;;;;9.10;1.65;;;15.80;76.40;;;;;;4885069;29;20044;-79
2022/12/31 14:18:44;;;;;;;9.25;1.88;;;15.80;76.70;;;;;;4899541;29;20115;-79
2022/12/31 14:21:37;;;;;;;13.35;2.30;;;15.90;76.70;;;;;;4899516;29;20048;-81
2022/12/31 14:24:38;;;;;;;12.75;1.85;;;15.90;77.20;;;;;;4899660;29;20056;-80
2022/12/31 14:27:09;;;;;;;9.73;1.65;;;16.00;77.00;;;;;;4896715;29;20326;-81
2022/12/31 14:29:46;;;;;;;10.75;1.83;;;16.20;76.60;;;;;;4882838;29;20083;-80
2022/12/31 14:32:58;;;;;;;11.57;1.50;;;16.30;76.20;;;;;;4882992;29;20063;-80
2022/12/31 14:35:45;;;;;;;13.30;1.60;;;16.40;75.60;;;;;;4841756;29;20445;-79
2022/12/31 14:38:40;;;;;;;6.40;1.33;;;16.50;75.30;;;;;;4843091;29;20062;-80
2022/12/31 14:41:38;;;;;;;9.48;1.70;;;16.50;75.10;;;;;;4877139;29;20596;-81
2022/12/31 14:44:19;;;;;;;8.63;1.20;;;16.60;74.90;;;;;;4903137;29;20056;-75
2022/12/31 14:47:15;;;;;;;10.68;1.90;;;16.60;74.80;;;;;;4902618;29;20048;-79
2022/12/31 14:49:56;;;;;;;7.32;1.13;;;16.60;75.00;;;;;;4886136;29;20128;-75
2022/12/31 14:52:42;;;;;;;10.23;1.48;;;16.70;75.20;;;;;;4902337;29;20044;-81
2022/12/31 14:55:08;;;;;;;8.73;1.38;;;16.70;75.10;;;;;;4886477;29;20262;-81
2022/12/31 14:57:39;;;;;;;10.50;1.63;;;16.70;75.20;;;;;;4902778;29;20080;-79
2022/12/31 15:00:23;;;;;;;7.68;1.27;;;16.70;75.40;;;;;;4902757;29;20356;-80
2022/12/31 15:02:52;;;;;;;4.63;1.35;;;16.70;75.50;;;;;;4885923;29;20048;-80
2022/12/31 15:05:21;;;;;;;7.43;1.30;;;16.70;75.70;;;;;;4886159;29;20048;-81
2022/12/31 15:07:54;;;;;;;9.40;1.30;;;16.70;75.70;;;;;;4885398;29;20076;-81
2022/12/31 15:10:47;;;;;;;7.70;1.43;;;16.70;75.90;;;;;;4886157;29;20097;-81
2022/12/31 15:13:12;;;;;;;10.77;1.77;;;16.70;76.00;;;;;;4885687;29;20044;-81
2022/12/31 15:15:56;;;;;;;9.98;1.73;;;16.70;76.00;;;;;;4885336;29;20071;-81
2022/12/31 15:18:46;;;;;;;7.30;1.70;;;16.70;76.00;;;;;;4901387;29;20337;-80
2022/12/31 15:21:44;;;;;;;7.57;1.52;;;16.70;76.10;;;;;;4901576;29;20440;-80
2022/12/31 15:24:29;;;;;;;11.48;1.83;;;16.70;76.20;;;;;;4884451;29;20049;-83
2022/12/31 15:27:00;;;;;;;14.00;2.75;;;16.60;76.20;;;;;;4901531;29;20084;-79
2022/12/31 15:29:32;;;;;;;13.40;1.95;;;16.60;76.80;;;;;;4901114;29;20053;-80
2022/12/31 15:32:01;;;;;;;16.83;2.00;;;16.60;76.30;;;;;;4900008;29;20423;-80
2022/12/31 15:34:31;;;;;;;9.95;1.77;;;16.50;76.40;;;;;;4901417;29;20060;-81
2022/12/31 15:37:01;;;;;;;13.18;1.58;;;16.50;76.50;;;;;;4885256;29;20048;-78
2022/12/31 15:39:47;;;;;;;5.97;1.40;;;16.50;76.70;;;;;;4901738;29;20072;-83
2022/12/31 15:42:32;;;;;;;8.15;1.85;;;16.40;76.90;;;;;;4885061;29;20071;-81
2022/12/31 15:45:06;;;;;;;16.20;2.00;;;16.40;76.90;;;;;;4885267;29;20044;-81
2022/12/31 15:47:39;;;;;;;10.25;1.73;;;16.40;77.50;;;;;;4901303;29;20063;-79
2022/12/31 15:50:13;;;;;;;6.50;1.35;;;16.40;76.90;;;;;;4884020;29;20056;-82
2022/12/31 15:52:42;;;;;;;7.32;1.83;;;16.40;76.90;;;;;;4885106;29;20048;-79
2022/12/31 15:55:21;;;;;;;6.68;1.38;;;16.40;77.00;;;;;;4901562;29;20511;-80
2022/12/31 15:57:48;;;;;;;6.93;1.65;;;16.40;77.00;;;;;;4884790;29;20365;-78
2022/12/31 16:00:19;;;;;;;8.63;1.23;;;16.50;77.00;;;;;;4901305;29;20367;-80
2022/12/31 16:02:49;;;;;;;8.00;1.63;;;16.40;76.90;;;;;;4901548;29;20092;-80
2022/12/31 16:05:21;;;;;;;8.27;1.58;;;16.40;76.90;;;;;;4900760;29;20048;-80
2022/12/31 16:07:47;;;;;;;10.95;2.60;;;16.40;76.90;;;;;;4900646;29;20069;-79
2022/12/31 16:10:42;;;;;;;5.72;1.75;;;16.50;76.90;;;;;;4901033;29;20475;-81
2022/12/31 16:13:18;;;;;;;6.35;1.80;;;16.40;76.70;;;;;;4872239;29;20079;-80
2022/12/31 16:15:51;;;;;;;7.25;1.70;;;16.50;76.70;;;;;;4901076;29;20045;-80
2022/12/31 16:18:17;;;;;;;18.02;3.00;;;16.40;76.60;;;;;;4884388;29;20056;-76
2022/12/31 16:20:47;;;;;;;7.30;1.50;;;16.50;76.70;;;;;;4900652;29;20058;-80
2022/12/31 16:23:22;;;;;;;9.98;2.08;;;16.50;76.80;;;;;;4900674;29;20332;-79
2022/12/31 16:25:52;;;;;;;7.70;1.80;;;16.50;76.70;;;;;;4889548;29;20044;-76
2022/12/31 16:28:28;;;;;;;9.43;2.15;;;16.50;76.70;;;;;;4882607;29;20079;-82
2022/12/31 16:31:05;;;;;;;10.68;3.17;;;16.40;76.60;;;;;;4893976;29;20045;-82
2022/12/31 16:33:31;;;;;;;8.35;2.25;;;16.40;76.70;;;;;;4850279;29;20128;-76
2022/12/31 16:36:00;;;;;;;10.23;2.47;;;16.40;76.70;;;;;;4899134;29;20041;-79
2022/12/31 16:38:35;;;;;;;9.68;2.80;;;16.50;76.80;;;;;;4884068;29;20059;-77
2022/12/31 16:41:01;;;;;;;9.98;2.78;;;16.50;76.70;;;;;;4900874;29;20123;-79
2022/12/31 16:43:40;;;;;;;9.10;2.63;;;16.40;76.50;;;;;;4900708;29;20127;-79
2022/12/31 16:46:29;;;;;;;12.93;2.60;;;16.50;76.60;;;;;;4900849;29;20071;-79
2022/12/31 16:49:05;;;;;;;10.80;3.45;;;16.40;76.60;;;;;;4901434;29;20052;-80
2022/12/31 16:51:32;;;;;;;13.35;2.88;;;16.50;76.70;;;;;;4900931;29;20067;-80
2022/12/31 16:54:01;;;;;;;13.23;3.25;;;16.50;76.70;;;;;;4884388;29;20068;-73
2022/12/31 16:56:37;;;;;;;14.55;3.30;;;16.50;77.30;;;;;;4866322;29;20140;-78
2022/12/31 16:59:13;;;;;;;13.75;2.63;;;16.50;76.80;;;;;;4900337;29;20048;-80
2022/12/31 17:01:41;;;;;;;9.27;2.78;;;16.50;76.80;;;;;;4900023;29;20040;-79
2022/12/31 17:04:14;;;;;;;11.25;3.67;;;16.40;76.60;;;;;;4900556;29;20117;-79
2022/12/31 17:06:41;;;;;;;14.55;4.13;;;16.50;76.40;;;;;;4900363;29;20071;-78
2022/12/31 17:09:22;;;;;;;14.70;4.07;;;16.40;76.10;;;;;;4900151;29;20507;-76
2022/12/31 17:11:50;;;;;;;11.35;3.00;;;16.40;75.20;;;;;;4900546;29;20364;-75
2022/12/31 17:14:19;;;;;;;16.17;4.03;;;16.30;75.30;;;;;;4899503;29;20107;-80
2022/12/31 17:16:53;;;;;;;14.05;3.85;;;16.20;75.50;;;;;;4866841;29;20056;-79
2022/12/31 17:19:44;;;;;;;15.85;3.78;;;16.20;75.70;;;;;;4868215;29;20056;-78
2022/12/31 17:22:25;;;;;;;11.45;3.35;;;16.20;76.00;;;;;;4900092;29;20367;-76
2022/12/31 17:24:57;;;;;;;12.38;2.88;;;16.10;76.00;;;;;;4900134;29;20048;-77
2022/12/31 17:27:23;;;;;;;9.52;2.72;;;16.10;76.00;;;;;;4900029;29;20393;-78
2022/12/31 17:29:49;;;;;;;16.15;3.25;;;16.10;75.70;;;;;;4899931;29;20045;-76
2022/12/31 17:32:35;;;;;;;10.05;3.00;;;16.00;75.80;;;;;;4884038;29;20123;-80
2022/12/31 17:35:20;;;;;;;13.80;2.60;;;16.00;75.90;;;;;;4883577;29;20049;-77
2022/12/31 17:37:46;;;;;;;5.68;2.05;;;16.00;76.00;;;;;;4900054;29;20052;-78
2022/12/31 17:40:35;;;;;;;7.72;1.90;;;16.00;76.00;;;;;;4900012;29;20124;-76
2022/12/31 17:43:01;;;;;;;11.45;2.72;;;16.00;76.00;;;;;;4900011;29;20116;-77
2022/12/31 17:45:27;;;;;;;17.30;3.28;;;15.90;76.10;;;;;;4882943;29;20049;-76
2022/12/31 17:47:58;;;;;;;6.35;2.15;;;16.00;76.20;;;;;;4899843;29;20056;-78
2022/12/31 17:50:25;;;;;;;6.15;2.10;;;15.90;76.20;;;;;;4899850;29;20063;-76
2022/12/31 17:53:11;;;;;;;6.03;2.22;;;15.90;76.20;;;;;;4883977;29;20048;-77
2022/12/31 17:55:37;;;;;;;7.53;1.65;;;15.90;76.20;;;;;;4883645;29;20065;-76
2022/12/31 17:58:05;;;;;;;8.15;1.75;;;15.90;76.30;;;;;;4883404;29;20127;-76
2022/12/31 18:00:32;;;;;;;5.05;1.90;;;15.90;76.30;;;;;;4899987;29;20139;-78